Brightway — 9V8755 — position and weather

sailwx.info

Track history (hours):
 
Tides and Currents Weather Stations Pressure Air Temp Water Temp Dewpoint Dewpoint Depression Visibility Wind Speed Wind Dir Waves Ship Positions

Brightway

Last reported at 2017-Oct-21 16:03 UTC. Time now 2017-Oct-22 23:09 UTC.
Position N 36°02' W 005°11'.

Length 274 m; draft 8.8 m.

Type: Tanker. MMSI: 566422000.

Date/timePositionNaut miles runAvg speedWind from/ knotsBaromVisibWave heightAir tempDewpointWater temp
2017-Oct-21 16:03N 36°02' W 005°11'114.0
2017-Oct-21 16:00N 36°02' W 005°12'713.7
2017-Oct-21 15:30N 36°05' W 005°19'3 5.1
2017-Oct-21 14:56N 36°07' W 005°22'0 0.2
2017-Oct-21 14:26N 36°07' W 005°22'0 0.0
2017-Oct-21 04:25N 36°07' W 005°22'2 4.4
2017-Oct-21 04:00N 36°05' W 005°21'3 6.8
2017-Oct-21 03:30N 36°05' W 005°17'2 4.1
2017-Oct-21 02:56N 36°06' W 005°14'0 0.3
2017-Oct-21 02:30N 36°06' W 005°14'1 1.8
2017-Oct-21 02:00N 36°07' W 005°13'10 0.4
2017-Oct-19 22:57N 36°11' W 005°02'0 0.7
2017-Oct-19 22:18N 36°11' W 005°02'5 1.2
2017-Oct-19 17:57N 36°07' W 005°07'1 0.4
2017-Oct-19 14:46N 36°07' W 005°09'10 7.3
2017-Oct-19 13:28N 36°02' W 004°59'4 1.6
2017-Oct-19 11:01N 36°03' W 005°03'1 2.6
2017-Oct-19 10:36N 36°03' W 005°05'0 2.7
2017-Oct-19 10:29N 36°03' W 005°05'1 2.7
2017-Oct-19 09:59N 36°04' W 005°07'1 2.3
2017-Oct-19 09:30N 36°04' W 005°08'1 1.3
2017-Oct-19 09:00N 36°04' W 005°09'0 0.9
2017-Oct-19 08:30N 36°04' W 005°09'1 1.1
2017-Oct-19 08:00N 36°05' W 005°09'1 1.5
2017-Oct-19 07:30N 36°06' W 005°10'0 0.8
2017-Oct-19 07:00N 36°06' W 005°10'1 2.1
2017-Oct-19 06:30N 36°06' W 005°09'2 3.5
2017-Oct-19 05:49N 36°06' W 005°06'1 2.0
2017-Oct-19 05:19N 36°06' W 005°07'1 1.9
2017-Oct-19 04:57N 36°05' W 005°08'1 1.6
2017-Oct-19 04:30N 36°05' W 005°08'2 3.4
2017-Oct-19 04:00N 36°05' W 005°06'2 3.0
2017-Oct-19 03:21N 36°06' W 005°04'1 1.9
2017-Oct-19 03:00N 36°06' W 005°05'1 1.6
2017-Oct-19 02:30N 36°07' W 005°06'1 1.6
2017-Oct-19 02:00N 36°07' W 005°07'1 1.5
2017-Oct-19 01:30N 36°08' W 005°07'1 2.5
2017-Oct-19 01:00N 36°09' W 005°08'3 5.9
2017-Oct-19 00:31N 36°11' W 005°11'1 2.2
2017-Oct-18 23:56N 36°10' W 005°13'0 0.6
2017-Oct-18 23:27N 36°10' W 005°12'0 0.7
2017-Oct-18 23:01N 36°10' W 005°12'0 0.6
2017-Oct-18 22:31N 36°10' W 005°12'1 1.1
2017-Oct-18 22:00N 36°10' W 005°11'1 2.2
2017-Oct-18 21:31N 36°09' W 005°10'1 1.9
2017-Oct-18 21:01N 36°08' W 005°10'0 0.8
2017-Oct-18 20:31N 36°07' W 005°10'0 0.5
2017-Oct-18 20:01N 36°07' W 005°10'0 0.9
2017-Oct-18 19:30N 36°07' W 005°10'0 0.5
2017-Oct-18 19:01N 36°06' W 005°10'0 0.7
2017-Oct-18 18:31N 36°06' W 005°10'2 3.8
2017-Oct-18 18:00N 36°06' W 005°08'9 5.1
2017-Oct-18 16:16N 36°05' W 004°57'3 2.7
2017-Oct-18 15:14N 36°07' W 004°59'1 3.2
2017-Oct-18 14:52N 36°08' W 005°00'3 3.0
2017-Oct-18 13:50N 36°09' W 005°04'1 2.6
2017-Oct-18 13:27N 36°09' W 005°05'1 2.0
2017-Oct-18 13:00N 36°10' W 005°06'1 2.1
2017-Oct-18 12:29N 36°10' W 005°07'1 1.9
2017-Oct-18 12:01N 36°10' W 005°08'1 1.5
2017-Oct-18 11:29N 36°10' W 005°09'1 1.6
2017-Oct-18 11:00N 36°10' W 005°09'2 2.7
2017-Oct-18 10:22N 36°08' W 005°09'1 2.0
2017-Oct-18 09:56N 36°07' W 005°09'  
2017-Oct-15 12:03N 33°26' W 010°34'0 0.2
2017-Oct-15 12:01N 33°26' W 010°34'1 0.4
2017-Oct-15 10:41N 33°26' W 010°34'0 0.4
2017-Oct-15 10:26N 33°26' W 010°34'2 0.7
2017-Oct-15 06:39N 33°28' W 010°36'0 0.7
2017-Oct-15 06:30N 33°28' W 010°36'0 0.7
2017-Oct-15 05:51N 33°28' W 010°37'0 0.6
2017-Oct-15 05:29N 33°29' W 010°37'1 0.7
2017-Oct-15 04:36N 33°29' W 010°37'6 0.5
2017-Oct-14 16:41N 33°35' W 010°37'0 0.6
2017-Oct-14 16:31N 33°35' W 010°37'2 0.7
2017-Oct-14 12:58N 33°37' W 010°35'0 0.7
2017-Oct-14 12:26N 33°37' W 010°35'0 0.7
2017-Oct-14 11:48N 33°37' W 010°35'0 0.6
2017-Oct-14 11:30N 33°38' W 010°35'1 0.6
2017-Oct-14 10:34N 33°38' W 010°34'0 0.8
2017-Oct-14 10:30N 33°38' W 010°34'8 0.6
2017-Oct-13 21:30N 33°41' W 010°25'1 0.9
2017-Oct-13 20:33N 33°41' W 010°24'0 0.9
2017-Oct-13 20:30N 33°41' W 010°24'0 0.9
2017-Oct-13 20:01N 33°41' W 010°23'0 0.7
2017-Oct-13 19:31N 33°41' W 010°23'1 0.8
2017-Oct-13 18:42N 33°41' W 010°22'0 0.9
2017-Oct-13 18:26N 33°42' W 010°22'0 0.6
2017-Oct-13 18:00N 33°41' W 010°22'0 0.6
2017-Oct-13 17:30N 33°42' W 010°21'0 0.6
2017-Oct-13 17:00N 33°42' W 010°21'0 0.8
2017-Oct-13 16:30N 33°42' W 010°20'0 0.8
2017-Oct-13 16:00N 33°42' W 010°20'0 0.7
2017-Oct-13 15:30N 33°42' W 010°20'0 0.6
2017-Oct-13 15:00N 33°42' W 010°19'0 0.7
2017-Oct-13 14:30N 33°42' W 010°19'0 0.7
2017-Oct-13 14:00N 33°42' W 010°19'1 0.8
2017-Oct-13 12:51N 33°42' W 010°18'0 0.9
2017-Oct-13 12:31N 33°42' W 010°17'0 0.9
2017-Oct-13 12:00N 33°43' W 010°17'0 0.7
2017-Oct-13 11:30N 33°43' W 010°16'1 0.9
2017-Oct-13 10:55N 33°43' W 010°16'0 1.0
2017-Oct-13 10:30N 33°43' W 010°15'0 0.9
2017-Oct-13 10:00N 33°43' W 010°15'0 0.9
2017-Oct-13 09:31N 33°43' W 010°14'0 0.8
2017-Oct-13 09:00N 33°43' W 010°14'0 0.8
2017-Oct-13 08:30N 33°43' W 010°13'0 0.8
2017-Oct-13 08:00N 33°43' W 010°13'0 0.9
2017-Oct-13 07:31N 33°43' W 010°12'1 1.0
2017-Oct-13 07:00N 33°43' W 010°11'1 1.1
2017-Oct-13 06:29N 33°43' W 010°11'1 1.1
2017-Oct-13 06:00N 33°43' W 010°10'1 1.0
2017-Oct-13 05:29N 33°43' W 010°10'1 1.0
2017-Oct-13 04:46N 33°43' W 010°09'0 1.0
2017-Oct-13 04:29N 33°43' W 010°08'1 0.9
2017-Oct-13 03:49N 33°42' W 010°08'0 0.9
2017-Oct-13 03:14N 33°43' W 010°07'1 1.0
2017-Oct-13 02:16N 33°43' W 010°06'0 0.9
2017-Oct-13 01:57N 33°43' W 010°06'0 0.8
2017-Oct-13 01:30N 33°43' W 010°05'0 0.8
2017-Oct-13 00:58N 33°43' W 010°05'1 0.7
2017-Oct-12 23:22N 33°43' W 010°03'0 0.7
2017-Oct-12 22:59N 33°43' W 010°03'0 0.7
2017-Oct-12 22:29N 33°43' W 010°03'0 0.8
2017-Oct-12 21:56N 33°43' W 010°02'0 0.7
2017-Oct-12 21:30N 33°43' W 010°02'0 0.7
2017-Oct-12 20:58N 33°43' W 010°01'0 0.6
2017-Oct-12 20:24N 33°43' W 010°01'1 0.7
2017-Oct-12 18:25N 33°43' W 009°59'3 0.7
2017-Oct-12 14:16N 33°43' W 009°56'1 0.8
2017-Oct-12 13:38N 33°43' W 009°55'0 0.8
2017-Oct-12 13:29N 33°43' W 009°55'1 0.9
2017-Oct-12 12:53N 33°43' W 009°54'1 1.0
2017-Oct-12 11:32N 33°43' W 009°53'0 1.1
2017-Oct-12 11:27N 33°43' W 009°53'0 0.9
2017-Oct-12 10:55N 33°43' W 009°52'0 1.0
2017-Oct-12 10:26N 33°43' W 009°51'0 1.0
2017-Oct-12 10:00N 33°43' W 009°51'1 1.1
2017-Oct-12 09:29N 33°43' W 009°50'1 1.3
2017-Oct-12 08:58N 33°43' W 009°49'1 1.3
2017-Oct-12 08:25N 33°43' W 009°48'0 1.2
2017-Oct-12 08:00N 33°43' W 009°48'1 1.0
2017-Oct-12 07:30N 33°43' W 009°47'1 1.1
2017-Oct-12 07:00N 33°43' W 009°47'1 1.1
2017-Oct-12 06:30N 33°43' W 009°46'1 1.1
2017-Oct-12 05:59N 33°43' W 009°45'1 1.2
2017-Oct-12 05:30N 33°43' W 009°45'1 1.1
2017-Oct-12 05:00N 33°43' W 009°44'1 1.2
2017-Oct-12 04:25N 33°43' W 009°43'0 1.1
2017-Oct-12 04:00N 33°43' W 009°43'1 1.1
2017-Oct-12 03:30N 33°43' W 009°42'1 1.2
2017-Oct-12 03:00N 33°43' W 009°41'1 1.1
2017-Oct-12 02:30N 33°43' W 009°41'1 1.1
2017-Oct-12 02:01N 33°43' W 009°40'1 1.2
2017-Oct-12 01:30N 33°44' W 009°39'1 1.2
2017-Oct-12 01:00N 33°44' W 009°38'1 1.1
2017-Oct-12 00:29N 33°44' W 009°38'1 1.0
2017-Oct-12 00:00N 33°44' W 009°37'1 1.0
2017-Oct-11 23:28N 33°44' W 009°37'0 0.9
2017-Oct-11 23:01N 33°44' W 009°36'0 0.9
2017-Oct-11 22:30N 33°44' W 009°36'1 1.0
2017-Oct-11 22:00N 33°44' W 009°35'1 0.9
2017-Oct-11 21:20N 33°44' W 009°34'0 1.0
2017-Oct-11 21:00N 33°45' W 009°34'0 0.9
2017-Oct-11 20:30N 33°45' W 009°34'0 0.9
2017-Oct-11 19:59N 33°45' W 009°33'0 0.8
2017-Oct-11 19:25N 33°46' W 009°33'0 0.9
2017-Oct-11 19:00N 33°46' W 009°33'1 0.9
2017-Oct-11 18:24N 33°47' W 009°33'0 0.9
2017-Oct-11 18:00N 33°47' W 009°33'1 1.0
2017-Oct-11 17:27N 33°48' W 009°33'0 0.9
2017-Oct-11 17:00N 33°48' W 009°33'  
Track history (hours):
 
Tides and Currents Weather Stations Pressure Air Temp Water Temp Dewpoint Dewpoint Depression Visibility Wind Speed Wind Dir Waves Ship Positions

Brightway

Last reported at 2017-Oct-21 16:03 UTC. Time now 2017-Oct-22 23:09 UTC.
Position N 36°02' W 005°11'.

Length 274 m; draft 8.8 m.

Type: Tanker. MMSI: 566422000.

Date/timePositionNaut miles runAvg speedWind from/ knotsBaromVisibWave heightAir tempDewpointWater temp
2017-Oct-21 16:03N 36°02' W 005°11'114.0
2017-Oct-21 16:00N 36°02' W 005°12'713.7
2017-Oct-21 15:30N 36°05' W 005°19'3 5.1
2017-Oct-21 14:56N 36°07' W 005°22'0 0.2
2017-Oct-21 14:26N 36°07' W 005°22'0 0.0
2017-Oct-21 04:25N 36°07' W 005°22'2 4.4
2017-Oct-21 04:00N 36°05' W 005°21'3 6.8
2017-Oct-21 03:30N 36°05' W 005°17'2 4.1
2017-Oct-21 02:56N 36°06' W 005°14'0 0.3
2017-Oct-21 02:30N 36°06' W 005°14'1 1.8
2017-Oct-21 02:00N 36°07' W 005°13'10 0.4
2017-Oct-19 22:57N 36°11' W 005°02'0 0.7
2017-Oct-19 22:18N 36°11' W 005°02'5 1.2
2017-Oct-19 17:57N 36°07' W 005°07'1 0.4
2017-Oct-19 14:46N 36°07' W 005°09'10 7.3
2017-Oct-19 13:28N 36°02' W 004°59'4 1.6
2017-Oct-19 11:01N 36°03' W 005°03'1 2.6
2017-Oct-19 10:36N 36°03' W 005°05'0 2.7
2017-Oct-19 10:29N 36°03' W 005°05'1 2.7
2017-Oct-19 09:59N 36°04' W 005°07'1 2.3
2017-Oct-19 09:30N 36°04' W 005°08'1 1.3
2017-Oct-19 09:00N 36°04' W 005°09'0 0.9
2017-Oct-19 08:30N 36°04' W 005°09'1 1.1
2017-Oct-19 08:00N 36°05' W 005°09'1 1.5
2017-Oct-19 07:30N 36°06' W 005°10'0 0.8
2017-Oct-19 07:00N 36°06' W 005°10'1 2.1
2017-Oct-19 06:30N 36°06' W 005°09'2 3.5
2017-Oct-19 05:49N 36°06' W 005°06'1 2.0
2017-Oct-19 05:19N 36°06' W 005°07'1 1.9
2017-Oct-19 04:57N 36°05' W 005°08'1 1.6
2017-Oct-19 04:30N 36°05' W 005°08'2 3.4
2017-Oct-19 04:00N 36°05' W 005°06'2 3.0
2017-Oct-19 03:21N 36°06' W 005°04'1 1.9
2017-Oct-19 03:00N 36°06' W 005°05'1 1.6
2017-Oct-19 02:30N 36°07' W 005°06'1 1.6
2017-Oct-19 02:00N 36°07' W 005°07'1 1.5
2017-Oct-19 01:30N 36°08' W 005°07'1 2.5
2017-Oct-19 01:00N 36°09' W 005°08'3 5.9
2017-Oct-19 00:31N 36°11' W 005°11'1 2.2
2017-Oct-18 23:56N 36°10' W 005°13'0 0.6
2017-Oct-18 23:27N 36°10' W 005°12'0 0.7
2017-Oct-18 23:01N 36°10' W 005°12'0 0.6
2017-Oct-18 22:31N 36°10' W 005°12'1 1.1
2017-Oct-18 22:00N 36°10' W 005°11'1 2.2
2017-Oct-18 21:31N 36°09' W 005°10'1 1.9
2017-Oct-18 21:01N 36°08' W 005°10'0 0.8
2017-Oct-18 20:31N 36°07' W 005°10'0 0.5
2017-Oct-18 20:01N 36°07' W 005°10'0 0.9
2017-Oct-18 19:30N 36°07' W 005°10'0 0.5
2017-Oct-18 19:01N 36°06' W 005°10'0 0.7
2017-Oct-18 18:31N 36°06' W 005°10'2 3.8
2017-Oct-18 18:00N 36°06' W 005°08'9 5.1
2017-Oct-18 16:16N 36°05' W 004°57'3 2.7
2017-Oct-18 15:14N 36°07' W 004°59'1 3.2
2017-Oct-18 14:52N 36°08' W 005°00'3 3.0
2017-Oct-18 13:50N 36°09' W 005°04'1 2.6
2017-Oct-18 13:27N 36°09' W 005°05'1 2.0
2017-Oct-18 13:00N 36°10' W 005°06'1 2.1
2017-Oct-18 12:29N 36°10' W 005°07'1 1.9
2017-Oct-18 12:01N 36°10' W 005°08'1 1.5
2017-Oct-18 11:29N 36°10' W 005°09'1 1.6
2017-Oct-18 11:00N 36°10' W 005°09'2 2.7
2017-Oct-18 10:22N 36°08' W 005°09'1 2.0
2017-Oct-18 09:56N 36°07' W 005°09'  
2017-Oct-15 12:03N 33°26' W 010°34'0 0.2
2017-Oct-15 12:01N 33°26' W 010°34'1 0.4
2017-Oct-15 10:41N 33°26' W 010°34'0 0.4
2017-Oct-15 10:26N 33°26' W 010°34'2 0.7
2017-Oct-15 06:39N 33°28' W 010°36'0 0.7
2017-Oct-15 06:30N 33°28' W 010°36'0 0.7
2017-Oct-15 05:51N 33°28' W 010°37'0 0.6
2017-Oct-15 05:29N 33°29' W 010°37'1 0.7
2017-Oct-15 04:36N 33°29' W 010°37'6 0.5
2017-Oct-14 16:41N 33°35' W 010°37'0 0.6
2017-Oct-14 16:31N 33°35' W 010°37'2 0.7
2017-Oct-14 12:58N 33°37' W 010°35'0 0.7
2017-Oct-14 12:26N 33°37' W 010°35'0 0.7
2017-Oct-14 11:48N 33°37' W 010°35'0 0.6
2017-Oct-14 11:30N 33°38' W 010°35'1 0.6
2017-Oct-14 10:34N 33°38' W 010°34'0 0.8
2017-Oct-14 10:30N 33°38' W 010°34'8 0.6
2017-Oct-13 21:30N 33°41' W 010°25'1 0.9
2017-Oct-13 20:33N 33°41' W 010°24'0 0.9
2017-Oct-13 20:30N 33°41' W 010°24'0 0.9
2017-Oct-13 20:01N 33°41' W 010°23'0 0.7
2017-Oct-13 19:31N 33°41' W 010°23'1 0.8
2017-Oct-13 18:42N 33°41' W 010°22'0 0.9
2017-Oct-13 18:26N 33°42' W 010°22'0 0.6
2017-Oct-13 18:00N 33°41' W 010°22'0 0.6
2017-Oct-13 17:30N 33°42' W 010°21'0 0.6
2017-Oct-13 17:00N 33°42' W 010°21'0 0.8
2017-Oct-13 16:30N 33°42' W 010°20'0 0.8
2017-Oct-13 16:00N 33°42' W 010°20'0 0.7
2017-Oct-13 15:30N 33°42' W 010°20'0 0.6
2017-Oct-13 15:00N 33°42' W 010°19'0 0.7
2017-Oct-13 14:30N 33°42' W 010°19'0 0.7
2017-Oct-13 14:00N 33°42' W 010°19'1 0.8
2017-Oct-13 12:51N 33°42' W 010°18'0 0.9
2017-Oct-13 12:31N 33°42' W 010°17'0 0.9
2017-Oct-13 12:00N 33°43' W 010°17'0 0.7
2017-Oct-13 11:30N 33°43' W 010°16'1 0.9
2017-Oct-13 10:55N 33°43' W 010°16'0 1.0
2017-Oct-13 10:30N 33°43' W 010°15'0 0.9
2017-Oct-13 10:00N 33°43' W 010°15'0 0.9
2017-Oct-13 09:31N 33°43' W 010°14'0 0.8
2017-Oct-13 09:00N 33°43' W 010°14'0 0.8
2017-Oct-13 08:30N 33°43' W 010°13'0 0.8
2017-Oct-13 08:00N 33°43' W 010°13'0 0.9
2017-Oct-13 07:31N 33°43' W 010°12'1 1.0
2017-Oct-13 07:00N 33°43' W 010°11'1 1.1
2017-Oct-13 06:29N 33°43' W 010°11'1 1.1
2017-Oct-13 06:00N 33°43' W 010°10'1 1.0
2017-Oct-13 05:29N 33°43' W 010°10'1 1.0
2017-Oct-13 04:46N 33°43' W 010°09'0 1.0
2017-Oct-13 04:29N 33°43' W 010°08'1 0.9
2017-Oct-13 03:49N 33°42' W 010°08'0 0.9
2017-Oct-13 03:14N 33°43' W 010°07'1 1.0
2017-Oct-13 02:16N 33°43' W 010°06'0 0.9
2017-Oct-13 01:57N 33°43' W 010°06'0 0.8
2017-Oct-13 01:30N 33°43' W 010°05'0 0.8
2017-Oct-13 00:58N 33°43' W 010°05'1 0.7
2017-Oct-12 23:22N 33°43' W 010°03'0 0.7
2017-Oct-12 22:59N 33°43' W 010°03'0 0.7
2017-Oct-12 22:29N 33°43' W 010°03'0 0.8
2017-Oct-12 21:56N 33°43' W 010°02'0 0.7
2017-Oct-12 21:30N 33°43' W 010°02'0 0.7
2017-Oct-12 20:58N 33°43' W 010°01'0 0.6
2017-Oct-12 20:24N 33°43' W 010°01'1 0.7
2017-Oct-12 18:25N 33°43' W 009°59'3 0.7
2017-Oct-12 14:16N 33°43' W 009°56'1 0.8
2017-Oct-12 13:38N 33°43' W 009°55'0 0.8
2017-Oct-12 13:29N 33°43' W 009°55'1 0.9
2017-Oct-12 12:53N 33°43' W 009°54'1 1.0
2017-Oct-12 11:32N 33°43' W 009°53'0 1.1
2017-Oct-12 11:27N 33°43' W 009°53'0 0.9
2017-Oct-12 10:55N 33°43' W 009°52'0 1.0
2017-Oct-12 10:26N 33°43' W 009°51'0 1.0
2017-Oct-12 10:00N 33°43' W 009°51'1 1.1
2017-Oct-12 09:29N 33°43' W 009°50'1 1.3
2017-Oct-12 08:58N 33°43' W 009°49'1 1.3
2017-Oct-12 08:25N 33°43' W 009°48'0 1.2
2017-Oct-12 08:00N 33°43' W 009°48'1 1.0
2017-Oct-12 07:30N 33°43' W 009°47'1 1.1
2017-Oct-12 07:00N 33°43' W 009°47'1 1.1
2017-Oct-12 06:30N 33°43' W 009°46'1 1.1
2017-Oct-12 05:59N 33°43' W 009°45'1 1.2
2017-Oct-12 05:30N 33°43' W 009°45'1 1.1
2017-Oct-12 05:00N 33°43' W 009°44'1 1.2
2017-Oct-12 04:25N 33°43' W 009°43'0 1.1
2017-Oct-12 04:00N 33°43' W 009°43'1 1.1
2017-Oct-12 03:30N 33°43' W 009°42'1 1.2
2017-Oct-12 03:00N 33°43' W 009°41'1 1.1
2017-Oct-12 02:30N 33°43' W 009°41'1 1.1
2017-Oct-12 02:01N 33°43' W 009°40'1 1.2
2017-Oct-12 01:30N 33°44' W 009°39'1 1.2
2017-Oct-12 01:00N 33°44' W 009°38'1 1.1
2017-Oct-12 00:29N 33°44' W 009°38'1 1.0
2017-Oct-12 00:00N 33°44' W 009°37'1 1.0
2017-Oct-11 23:28N 33°44' W 009°37'0 0.9
2017-Oct-11 23:01N 33°44' W 009°36'0 0.9
2017-Oct-11 22:30N 33°44' W 009°36'1 1.0
2017-Oct-11 22:00N 33°44' W 009°35'1 0.9
2017-Oct-11 21:20N 33°44' W 009°34'0 1.0
2017-Oct-11 21:00N 33°45' W 009°34'0 0.9
2017-Oct-11 20:30N 33°45' W 009°34'0 0.9
2017-Oct-11 19:59N 33°45' W 009°33'0 0.8
2017-Oct-11 19:25N 33°46' W 009°33'0 0.9
2017-Oct-11 19:00N 33°46' W 009°33'1 0.9
2017-Oct-11 18:24N 33°47' W 009°33'0 0.9
2017-Oct-11 18:00N 33°47' W 009°33'1 1.0
2017-Oct-11 17:27N 33°48' W 009°33'0 0.9
2017-Oct-11 17:00N 33°48' W 009°33'  

Dump ship's entire track history